sensor_id;sensor_type;location;lat;lon;timestamp;P1;durP1;ratioP1;P2;durP2;ratioP2
20557;SDS011;10437;48.156;11.530;2024-01-16T00:00:08;5.07;;;1.90;;
20557;SDS011;10437;48.156;11.530;2024-01-16T00:02:36;2.77;;;1.43;;
20557;SDS011;10437;48.156;11.530;2024-01-16T00:05:02;2.90;;;1.90;;
20557;SDS011;10437;48.156;11.530;2024-01-16T00:07:31;3.23;;;1.57;;
20557;SDS011;10437;48.156;11.530;2024-01-16T00:10:00;3.17;;;1.80;;
20557;SDS011;10437;48.156;11.530;2024-01-16T00:12:27;3.67;;;1.70;;
20557;SDS011;10437;48.156;11.530;2024-01-16T00:14:55;4.50;;;1.93;;
20557;SDS011;10437;48.156;11.530;2024-01-16T00:17:22;3.43;;;1.73;;
20557;SDS011;10437;48.156;11.530;2024-01-16T00:19:49;3.50;;;1.40;;
20557;SDS011;10437;48.156;11.530;2024-01-16T00:22:16;5.30;;;1.87;;
20557;SDS011;10437;48.156;11.530;2024-01-16T00:24:45;2.90;;;1.63;;
20557;SDS011;10437;48.156;11.530;2024-01-16T00:27:12;2.70;;;1.43;;
20557;SDS011;10437;48.156;11.530;2024-01-16T00:29:39;4.33;;;1.87;;
20557;SDS011;10437;48.156;11.530;2024-01-16T00:32:07;4.50;;;2.00;;
20557;SDS011;10437;48.156;11.530;2024-01-16T00:34:34;7.27;;;2.03;;
20557;SDS011;10437;48.156;11.530;2024-01-16T00:37:01;5.47;;;1.87;;
20557;SDS011;10437;48.156;11.530;2024-01-16T00:39:28;3.43;;;1.70;;
20557;SDS011;10437;48.156;11.530;2024-01-16T00:41:57;4.17;;;1.40;;
20557;SDS011;10437;48.156;11.530;2024-01-16T00:44:24;3.60;;;1.80;;
20557;SDS011;10437;48.156;11.530;2024-01-16T00:46:52;3.27;;;1.57;;
20557;SDS011;10437;48.156;11.530;2024-01-16T00:49:19;4.60;;;1.87;;
20557;SDS011;10437;48.156;11.530;2024-01-16T00:51:46;3.80;;;1.80;;
20557;SDS011;10437;48.156;11.530;2024-01-16T00:54:13;3.23;;;1.60;;
20557;SDS011;10437;48.156;11.530;2024-01-16T00:56:41;4.93;;;1.60;;
20557;SDS011;10437;48.156;11.530;2024-01-16T00:59:10;3.83;;;1.70;;
20557;SDS011;10437;48.156;11.530;2024-01-16T01:01:37;4.37;;;1.60;;
20557;SDS011;10437;48.156;11.530;2024-01-16T01:04:04;4.10;;;1.70;;
20557;SDS011;10437;48.156;11.530;2024-01-16T01:06:31;3.20;;;1.60;;
20557;SDS011;10437;48.156;11.530;2024-01-16T01:08:59;2.77;;;1.40;;
20557;SDS011;10437;48.156;11.530;2024-01-16T01:11:26;4.93;;;1.60;;
20557;SDS011;10437;48.156;11.530;2024-01-16T01:13:53;5.23;;;1.90;;
20557;SDS011;10437;48.156;11.530;2024-01-16T01:16:22;5.10;;;1.90;;
20557;SDS011;10437;48.156;11.530;2024-01-16T01:18:48;3.17;;;1.57;;
20557;SDS011;10437;48.156;11.530;2024-01-16T01:21:15;4.60;;;1.50;;
20557;SDS011;10437;48.156;11.530;2024-01-16T01:23:43;5.13;;;1.83;;
20557;SDS011;10437;48.156;11.530;2024-01-16T01:26:10;3.17;;;1.30;;
20557;SDS011;10437;48.156;11.530;2024-01-16T01:28:38;3.43;;;1.60;;
20557;SDS011;10437;48.156;11.530;2024-01-16T01:31:07;4.63;;;1.63;;
20557;SDS011;10437;48.156;11.530;2024-01-16T01:33:36;2.87;;;1.40;;
20557;SDS011;10437;48.156;11.530;2024-01-16T01:36:03;3.43;;;1.70;;
20557;SDS011;10437;48.156;11.530;2024-01-16T01:38:31;5.70;;;1.60;;
20557;SDS011;10437;48.156;11.530;2024-01-16T01:40:58;4.17;;;1.47;;
20557;SDS011;10437;48.156;11.530;2024-01-16T01:43:25;4.27;;;1.63;;
20557;SDS011;10437;48.156;11.530;2024-01-16T01:45:58;2.20;;;1.33;;
20557;SDS011;10437;48.156;11.530;2024-01-16T01:48:31;4.20;;;1.70;;
20557;SDS011;10437;48.156;11.530;2024-01-16T01:51:00;2.97;;;1.60;;
20557;SDS011;10437;48.156;11.530;2024-01-16T01:53:28;4.03;;;1.73;;
20557;SDS011;10437;48.156;11.530;2024-01-16T01:55:57;4.83;;;1.60;;
20557;SDS011;10437;48.156;11.530;2024-01-16T01:58:24;4.77;;;1.23;;
20557;SDS011;10437;48.156;11.530;2024-01-16T02:00:51;7.40;;;1.63;;
20557;SDS011;10437;48.156;11.530;2024-01-16T02:03:18;3.20;;;1.60;;
20557;SDS011;10437;48.156;11.530;2024-01-16T02:05:47;2.97;;;1.67;;
20557;SDS011;10437;48.156;11.530;2024-01-16T02:08:15;5.07;;;1.67;;
20557;SDS011;10437;48.156;11.530;2024-01-16T02:10:43;2.93;;;1.27;;
20557;SDS011;10437;48.156;11.530;2024-01-16T02:13:14;4.37;;;1.60;;
20557;SDS011;10437;48.156;11.530;2024-01-16T02:15:43;2.37;;;1.20;;
20557;SDS011;10437;48.156;11.530;2024-01-16T02:18:11;2.57;;;1.37;;
20557;SDS011;10437;48.156;11.530;2024-01-16T02:20:38;3.47;;;1.50;;
20557;SDS011;10437;48.156;11.530;2024-01-16T02:23:05;3.13;;;1.50;;
20557;SDS011;10437;48.156;11.530;2024-01-16T02:25:35;4.40;;;1.93;;
20557;SDS011;10437;48.156;11.530;2024-01-16T02:28:02;4.33;;;1.60;;
20557;SDS011;10437;48.156;11.530;2024-01-16T02:30:30;2.70;;;1.60;;
20557;SDS011;10437;48.156;11.530;2024-01-16T02:32:57;4.70;;;1.77;;
20557;SDS011;10437;48.156;11.530;2024-01-16T02:35:24;2.67;;;1.20;;
20557;SDS011;10437;48.156;11.530;2024-01-16T02:37:51;2.03;;;1.20;;
20557;SDS011;10437;48.156;11.530;2024-01-16T02:40:19;3.00;;;1.40;;
20557;SDS011;10437;48.156;11.530;2024-01-16T02:42:47;2.27;;;1.17;;
20557;SDS011;10437;48.156;11.530;2024-01-16T02:45:14;3.23;;;1.40;;
20557;SDS011;10437;48.156;11.530;2024-01-16T02:47:42;4.80;;;1.67;;
20557;SDS011;10437;48.156;11.530;2024-01-16T02:50:09;1.97;;;1.30;;
20557;SDS011;10437;48.156;11.530;2024-01-16T02:52:36;3.30;;;1.37;;
20557;SDS011;10437;48.156;11.530;2024-01-16T02:55:04;4.57;;;1.40;;
20557;SDS011;10437;48.156;11.530;2024-01-16T02:57:32;4.20;;;1.83;;
20557;SDS011;10437;48.156;11.530;2024-01-16T03:00:01;2.77;;;1.20;;
20557;SDS011;10437;48.156;11.530;2024-01-16T03:02:28;5.17;;;1.50;;
20557;SDS011;10437;48.156;11.530;2024-01-16T03:04:56;3.87;;;1.30;;
20557;SDS011;10437;48.156;11.530;2024-01-16T03:07:23;3.43;;;1.23;;
20557;SDS011;10437;48.156;11.530;2024-01-16T03:09:50;3.80;;;1.80;;
20557;SDS011;10437;48.156;11.530;2024-01-16T03:12:17;2.37;;;1.27;;
20557;SDS011;10437;48.156;11.530;2024-01-16T03:14:45;3.50;;;1.50;;
20557;SDS011;10437;48.156;11.530;2024-01-16T03:17:13;4.67;;;1.73;;
20557;SDS011;10437;48.156;11.530;2024-01-16T03:19:41;2.73;;;1.40;;
20557;SDS011;10437;48.156;11.530;2024-01-16T03:22:09;3.30;;;1.60;;
20557;SDS011;10437;48.156;11.530;2024-01-16T03:24:36;3.37;;;1.53;;
20557;SDS011;10437;48.156;11.530;2024-01-16T03:27:04;2.43;;;1.30;;
20557;SDS011;10437;48.156;11.530;2024-01-16T03:29:31;3.87;;;1.60;;
20557;SDS011;10437;48.156;11.530;2024-01-16T03:31:59;3.67;;;1.67;;
20557;SDS011;10437;48.156;11.530;2024-01-16T03:34:27;5.00;;;1.60;;
20557;SDS011;10437;48.156;11.530;2024-01-16T03:36:56;3.53;;;1.80;;
20557;SDS011;10437;48.156;11.530;2024-01-16T03:39:23;5.07;;;1.60;;
20557;SDS011;10437;48.156;11.530;2024-01-16T03:41:50;2.57;;;1.40;;
20557;SDS011;10437;48.156;11.530;2024-01-16T03:44:17;6.67;;;1.70;;
20557;SDS011;10437;48.156;11.530;2024-01-16T03:46:45;3.90;;;1.60;;
20557;SDS011;10437;48.156;11.530;2024-01-16T03:49:12;3.23;;;1.60;;
20557;SDS011;10437;48.156;11.530;2024-01-16T03:51:40;3.33;;;1.70;;
20557;SDS011;10437;48.156;11.530;2024-01-16T03:54:11;4.07;;;1.57;;
20557;SDS011;10437;48.156;11.530;2024-01-16T03:56:39;3.90;;;1.60;;
20557;SDS011;10437;48.156;11.530;2024-01-16T03:59:06;2.03;;;1.53;;
20557;SDS011;10437;48.156;11.530;2024-01-16T04:01:33;3.50;;;1.60;;
20557;SDS011;10437;48.156;11.530;2024-01-16T04:04:02;5.20;;;1.93;;
20557;SDS011;10437;48.156;11.530;2024-01-16T04:06:31;3.87;;;1.63;;
20557;SDS011;10437;48.156;11.530;2024-01-16T04:09:00;5.33;;;1.97;;
20557;SDS011;10437;48.156;11.530;2024-01-16T04:11:28;3.57;;;1.57;;
20557;SDS011;10437;48.156;11.530;2024-01-16T04:13:55;4.23;;;1.57;;
20557;SDS011;10437;48.156;11.530;2024-01-16T04:16:22;2.70;;;1.53;;
20557;SDS011;10437;48.156;11.530;2024-01-16T04:18:50;4.10;;;2.07;;
20557;SDS011;10437;48.156;11.530;2024-01-16T04:21:17;5.57;;;1.70;;
20557;SDS011;10437;48.156;11.530;2024-01-16T04:23:44;3.07;;;1.43;;
20557;SDS011;10437;48.156;11.530;2024-01-16T04:26:13;2.40;;;1.30;;
20557;SDS011;10437;48.156;11.530;2024-01-16T04:28:40;4.27;;;1.60;;
20557;SDS011;10437;48.156;11.530;2024-01-16T04:31:08;3.57;;;1.53;;
20557;SDS011;10437;48.156;11.530;2024-01-16T04:33:36;3.00;;;1.73;;
20557;SDS011;10437;48.156;11.530;2024-01-16T04:36:04;4.40;;;1.80;;
20557;SDS011;10437;48.156;11.530;2024-01-16T04:38:30;5.83;;;1.87;;
20557;SDS011;10437;48.156;11.530;2024-01-16T04:41:00;4.00;;;1.57;;
20557;SDS011;10437;48.156;11.530;2024-01-16T04:43:29;3.20;;;1.50;;
20557;SDS011;10437;48.156;11.530;2024-01-16T04:45:56;1.93;;;1.33;;
20557;SDS011;10437;48.156;11.530;2024-01-16T04:48:23;3.47;;;1.70;;
20557;SDS011;10437;48.156;11.530;2024-01-16T04:50:50;6.70;;;1.40;;
20557;SDS011;10437;48.156;11.530;2024-01-16T04:53:17;2.57;;;1.33;;
20557;SDS011;10437;48.156;11.530;2024-01-16T04:55:44;2.63;;;1.57;;
20557;SDS011;10437;48.156;11.530;2024-01-16T04:58:12;3.17;;;1.60;;
20557;SDS011;10437;48.156;11.530;2024-01-16T05:00:40;3.03;;;1.57;;
20557;SDS011;10437;48.156;11.530;2024-01-16T05:03:07;2.70;;;1.40;;
20557;SDS011;10437;48.156;11.530;2024-01-16T05:05:34;4.40;;;1.60;;
20557;SDS011;10437;48.156;11.530;2024-01-16T05:08:01;4.23;;;1.80;;
20557;SDS011;10437;48.156;11.530;2024-01-16T05:10:29;5.70;;;2.07;;
20557;SDS011;10437;48.156;11.530;2024-01-16T05:12:56;3.53;;;1.70;;
20557;SDS011;10437;48.156;11.530;2024-01-16T05:15:23;4.47;;;1.80;;
20557;SDS011;10437;48.156;11.530;2024-01-16T05:17:52;3.23;;;1.50;;
20557;SDS011;10437;48.156;11.530;2024-01-16T05:20:19;5.73;;;1.80;;
20557;SDS011;10437;48.156;11.530;2024-01-16T05:22:47;4.33;;;1.80;;
20557;SDS011;10437;48.156;11.530;2024-01-16T05:25:14;3.37;;;1.80;;
20557;SDS011;10437;48.156;11.530;2024-01-16T05:27:43;7.83;;;2.10;;
20557;SDS011;10437;48.156;11.530;2024-01-16T05:30:10;2.63;;;1.60;;
20557;SDS011;10437;48.156;11.530;2024-01-16T05:32:38;4.77;;;1.90;;
20557;SDS011;10437;48.156;11.530;2024-01-16T05:35:08;2.93;;;1.57;;
20557;SDS011;10437;48.156;11.530;2024-01-16T05:37:35;3.90;;;1.70;;
20557;SDS011;10437;48.156;11.530;2024-01-16T05:40:03;4.57;;;2.00;;
20557;SDS011;10437;48.156;11.530;2024-01-16T05:42:32;3.67;;;1.90;;
20557;SDS011;10437;48.156;11.530;2024-01-16T05:44:59;3.50;;;1.70;;
20557;SDS011;10437;48.156;11.530;2024-01-16T05:47:27;4.47;;;1.77;;
20557;SDS011;10437;48.156;11.530;2024-01-16T05:49:55;6.77;;;2.23;;
20557;SDS011;10437;48.156;11.530;2024-01-16T05:52:24;4.03;;;1.80;;
20557;SDS011;10437;48.156;11.530;2024-01-16T05:54:51;5.50;;;1.87;;
20557;SDS011;10437;48.156;11.530;2024-01-16T05:57:22;5.17;;;2.07;;
20557;SDS011;10437;48.156;11.530;2024-01-16T05:59:49;8.10;;;2.00;;
20557;SDS011;10437;48.156;11.530;2024-01-16T06:02:16;3.23;;;1.53;;
20557;SDS011;10437;48.156;11.530;2024-01-16T06:04:44;4.57;;;1.90;;
20557;SDS011;10437;48.156;11.530;2024-01-16T06:07:11;8.30;;;1.93;;
20557;SDS011;10437;48.156;11.530;2024-01-16T06:09:40;3.73;;;1.80;;
20557;SDS011;10437;48.156;11.530;2024-01-16T06:12:07;5.50;;;1.90;;
20557;SDS011;10437;48.156;11.530;2024-01-16T06:14:35;4.10;;;1.97;;
20557;SDS011;10437;48.156;11.530;2024-01-16T06:17:02;5.93;;;1.70;;
20557;SDS011;10437;48.156;11.530;2024-01-16T06:19:30;5.33;;;2.30;;
20557;SDS011;10437;48.156;11.530;2024-01-16T06:21:58;4.90;;;1.80;;
20557;SDS011;10437;48.156;11.530;2024-01-16T06:24:25;2.77;;;1.60;;
20557;SDS011;10437;48.156;11.530;2024-01-16T06:26:54;3.83;;;1.80;;
20557;SDS011;10437;48.156;11.530;2024-01-16T06:29:21;3.47;;;1.50;;
20557;SDS011;10437;48.156;11.530;2024-01-16T06:31:48;5.33;;;1.73;;
20557;SDS011;10437;48.156;11.530;2024-01-16T06:34:15;3.77;;;1.80;;
20557;SDS011;10437;48.156;11.530;2024-01-16T06:36:42;5.57;;;2.13;;
20557;SDS011;10437;48.156;11.530;2024-01-16T06:39:10;4.63;;;1.87;;
20557;SDS011;10437;48.156;11.530;2024-01-16T06:41:39;3.50;;;1.80;;
20557;SDS011;10437;48.156;11.530;2024-01-16T06:44:07;3.43;;;1.80;;
20557;SDS011;10437;48.156;11.530;2024-01-16T06:46:34;3.20;;;1.70;;
20557;SDS011;10437;48.156;11.530;2024-01-16T06:49:02;7.23;;;2.67;;
20557;SDS011;10437;48.156;11.530;2024-01-16T06:51:29;5.07;;;2.10;;
20557;SDS011;10437;48.156;11.530;2024-01-16T06:53:56;5.03;;;2.33;;
20557;SDS011;10437;48.156;11.530;2024-01-16T06:56:23;6.60;;;1.73;;
20557;SDS011;10437;48.156;11.530;2024-01-16T06:58:50;5.67;;;1.90;;
20557;SDS011;10437;48.156;11.530;2024-01-16T07:01:19;4.93;;;1.93;;
20557;SDS011;10437;48.156;11.530;2024-01-16T07:03:46;2.93;;;1.90;;
20557;SDS011;10437;48.156;11.530;2024-01-16T07:06:13;5.27;;;1.97;;
20557;SDS011;10437;48.156;11.530;2024-01-16T07:08:40;4.33;;;1.90;;
20557;SDS011;10437;48.156;11.530;2024-01-16T07:11:08;4.63;;;1.90;;
20557;SDS011;10437;48.156;11.530;2024-01-16T07:13:38;5.47;;;1.83;;
20557;SDS011;10437;48.156;11.530;2024-01-16T07:16:05;3.80;;;1.77;;
20557;SDS011;10437;48.156;11.530;2024-01-16T07:18:34;5.50;;;1.97;;
20557;SDS011;10437;48.156;11.530;2024-01-16T07:21:01;5.07;;;1.77;;
20557;SDS011;10437;48.156;11.530;2024-01-16T07:23:29;3.97;;;1.87;;
20557;SDS011;10437;48.156;11.530;2024-01-16T07:25:56;4.27;;;1.97;;
20557;SDS011;10437;48.156;11.530;2024-01-16T07:28:23;8.80;;;1.90;;
20557;SDS011;10437;48.156;11.530;2024-01-16T07:30:52;4.27;;;1.77;;
20557;SDS011;10437;48.156;11.530;2024-01-16T07:33:19;7.30;;;2.03;;
20557;SDS011;10437;48.156;11.530;2024-01-16T07:35:48;3.80;;;1.90;;
20557;SDS011;10437;48.156;11.530;2024-01-16T07:38:15;3.57;;;1.60;;
20557;SDS011;10437;48.156;11.530;2024-01-16T07:40:42;4.03;;;1.60;;
20557;SDS011;10437;48.156;11.530;2024-01-16T07:43:09;5.87;;;1.80;;
20557;SDS011;10437;48.156;11.530;2024-01-16T07:45:37;5.17;;;1.87;;
20557;SDS011;10437;48.156;11.530;2024-01-16T07:48:04;3.17;;;1.67;;
20557;SDS011;10437;48.156;11.530;2024-01-16T07:50:31;4.27;;;1.90;;
20557;SDS011;10437;48.156;11.530;2024-01-16T07:53:00;3.40;;;2.03;;
20557;SDS011;10437;48.156;11.530;2024-01-16T07:55:27;7.93;;;2.77;;
20557;SDS011;10437;48.156;11.530;2024-01-16T07:57:54;5.93;;;3.63;;
20557;SDS011;10437;48.156;11.530;2024-01-16T08:00:21;5.63;;;2.97;;
20557;SDS011;10437;48.156;11.530;2024-01-16T08:02:49;7.93;;;2.63;;
20557;SDS011;10437;48.156;11.530;2024-01-16T08:05:16;7.80;;;3.00;;
20557;SDS011;10437;48.156;11.530;2024-01-16T08:07:44;6.87;;;2.83;;
20557;SDS011;10437;48.156;11.530;2024-01-16T08:10:13;5.97;;;2.40;;
20557;SDS011;10437;48.156;11.530;2024-01-16T08:12:40;3.70;;;2.10;;
20557;SDS011;10437;48.156;11.530;2024-01-16T08:15:07;6.93;;;2.00;;
20557;SDS011;10437;48.156;11.530;2024-01-16T08:17:35;6.10;;;2.40;;
20557;SDS011;10437;48.156;11.530;2024-01-16T08:20:02;4.67;;;2.10;;
20557;SDS011;10437;48.156;11.530;2024-01-16T08:22:30;10.30;;;2.10;;
20557;SDS011;10437;48.156;11.530;2024-01-16T08:24:57;4.60;;;2.27;;
20557;SDS011;10437;48.156;11.530;2024-01-16T08:27:25;5.57;;;2.27;;
20557;SDS011;10437;48.156;11.530;2024-01-16T08:29:54;3.97;;;2.03;;
20557;SDS011;10437;48.156;11.530;2024-01-16T08:32:21;8.53;;;2.87;;
20557;SDS011;10437;48.156;11.530;2024-01-16T08:34:48;9.67;;;2.80;;
20557;SDS011;10437;48.156;11.530;2024-01-16T08:37:15;7.13;;;3.40;;
20557;SDS011;10437;48.156;11.530;2024-01-16T08:39:43;8.47;;;4.20;;
20557;SDS011;10437;48.156;11.530;2024-01-16T08:42:10;8.00;;;3.00;;
20557;SDS011;10437;48.156;11.530;2024-01-16T08:44:38;6.67;;;2.97;;
20557;SDS011;10437;48.156;11.530;2024-01-16T08:47:05;6.50;;;2.40;;
20557;SDS011;10437;48.156;11.530;2024-01-16T08:49:33;9.00;;;3.30;;
20557;SDS011;10437;48.156;11.530;2024-01-16T08:52:00;9.77;;;3.00;;
20557;SDS011;10437;48.156;11.530;2024-01-16T08:54:27;9.47;;;2.93;;
20557;SDS011;10437;48.156;11.530;2024-01-16T08:56:55;7.93;;;3.33;;
20557;SDS011;10437;48.156;11.530;2024-01-16T08:59:23;9.17;;;3.30;;
20557;SDS011;10437;48.156;11.530;2024-01-16T09:01:52;6.10;;;2.57;;
20557;SDS011;10437;48.156;11.530;2024-01-16T09:04:19;12.73;;;2.50;;
20557;SDS011;10437;48.156;11.530;2024-01-16T09:06:46;4.90;;;2.40;;
20557;SDS011;10437;48.156;11.530;2024-01-16T09:09:13;6.53;;;2.40;;
20557;SDS011;10437;48.156;11.530;2024-01-16T09:11:41;8.77;;;3.17;;
20557;SDS011;10437;48.156;11.530;2024-01-16T09:14:08;5.53;;;2.60;;
20557;SDS011;10437;48.156;11.530;2024-01-16T09:16:35;6.90;;;2.57;;
20557;SDS011;10437;48.156;11.530;2024-01-16T09:19:04;6.60;;;3.00;;
20557;SDS011;10437;48.156;11.530;2024-01-16T09:21:31;6.97;;;3.10;;
20557;SDS011;10437;48.156;11.530;2024-01-16T09:23:58;14.03;;;3.53;;
20557;SDS011;10437;48.156;11.530;2024-01-16T09:26:26;6.77;;;2.70;;
20557;SDS011;10437;48.156;11.530;2024-01-16T09:28:53;9.70;;;3.10;;
20557;SDS011;10437;48.156;11.530;2024-01-16T09:31:20;6.13;;;2.70;;
20557;SDS011;10437;48.156;11.530;2024-01-16T09:33:47;11.23;;;3.17;;
20557;SDS011;10437;48.156;11.530;2024-01-16T09:36:16;5.67;;;2.83;;
20557;SDS011;10437;48.156;11.530;2024-01-16T09:38:43;9.33;;;3.20;;
20557;SDS011;10437;48.156;11.530;2024-01-16T09:41:10;7.87;;;3.23;;
20557;SDS011;10437;48.156;11.530;2024-01-16T09:43:38;5.07;;;2.47;;
20557;SDS011;10437;48.156;11.530;2024-01-16T09:46:06;8.20;;;3.00;;
20557;SDS011;10437;48.156;11.530;2024-01-16T09:48:35;6.50;;;3.20;;
20557;SDS011;10437;48.156;11.530;2024-01-16T09:51:03;9.93;;;3.37;;
20557;SDS011;10437;48.156;11.530;2024-01-16T09:53:31;5.40;;;2.47;;
20557;SDS011;10437;48.156;11.530;2024-01-16T09:56:00;5.37;;;2.57;;
20557;SDS011;10437;48.156;11.530;2024-01-16T09:58:29;4.97;;;2.10;;
20557;SDS011;10437;48.156;11.530;2024-01-16T10:00:59;6.87;;;2.50;;
20557;SDS011;10437;48.156;11.530;2024-01-16T10:03:26;3.73;;;2.03;;
20557;SDS011;10437;48.156;11.530;2024-01-16T10:05:55;7.83;;;2.77;;
20557;SDS011;10437;48.156;11.530;2024-01-16T10:08:24;8.57;;;2.53;;
20557;SDS011;10437;48.156;11.530;2024-01-16T10:10:53;5.10;;;2.63;;
20557;SDS011;10437;48.156;11.530;2024-01-16T10:13:20;4.67;;;3.07;;
20557;SDS011;10437;48.156;11.530;2024-01-16T10:15:49;7.70;;;4.30;;
20557;SDS011;10437;48.156;11.530;2024-01-16T10:18:27;8.00;;;3.20;;
20557;SDS011;10437;48.156;11.530;2024-01-16T10:20:55;5.80;;;2.40;;
20557;SDS011;10437;48.156;11.530;2024-01-16T10:23:23;5.23;;;2.63;;
20557;SDS011;10437;48.156;11.530;2024-01-16T10:28:34;5.83;;;2.70;;
20557;SDS011;10437;48.156;11.530;2024-01-16T10:31:02;6.13;;;2.27;;
20557;SDS011;10437;48.156;11.530;2024-01-16T10:33:29;4.50;;;2.07;;
20557;SDS011;10437;48.156;11.530;2024-01-16T10:36:09;4.60;;;2.40;;
20557;SDS011;10437;48.156;11.530;2024-01-16T10:38:37;4.70;;;2.37;;
20557;SDS011;10437;48.156;11.530;2024-01-16T10:41:05;6.50;;;2.40;;
20557;SDS011;10437;48.156;11.530;2024-01-16T10:43:36;4.50;;;2.30;;
20557;SDS011;10437;48.156;11.530;2024-01-16T10:46:11;4.87;;;2.13;;
20557;SDS011;10437;48.156;11.530;2024-01-16T10:48:38;6.57;;;2.50;;
20557;SDS011;10437;48.156;11.530;2024-01-16T10:51:06;5.63;;;2.77;;
20557;SDS011;10437;48.156;11.530;2024-01-16T10:53:34;5.23;;;2.60;;
20557;SDS011;10437;48.156;11.530;2024-01-16T10:56:01;3.33;;;1.80;;
20557;SDS011;10437;48.156;11.530;2024-01-16T10:58:33;7.50;;;2.30;;
20557;SDS011;10437;48.156;11.530;2024-01-16T11:01:02;6.57;;;2.40;;
20557;SDS011;10437;48.156;11.530;2024-01-16T11:03:34;5.77;;;2.00;;
20557;SDS011;10437;48.156;11.530;2024-01-16T11:06:04;4.07;;;1.90;;
20557;SDS011;10437;48.156;11.530;2024-01-16T11:08:33;7.50;;;2.53;;
20557;SDS011;10437;48.156;11.530;2024-01-16T11:11:03;6.57;;;2.17;;
20557;SDS011;10437;48.156;11.530;2024-01-16T11:13:31;5.33;;;2.37;;
20557;SDS011;10437;48.156;11.530;2024-01-16T11:16:01;5.83;;;1.97;;
20557;SDS011;10437;48.156;11.530;2024-01-16T11:18:30;2.97;;;1.70;;
20557;SDS011;10437;48.156;11.530;2024-01-16T11:20:57;4.80;;;2.17;;
20557;SDS011;10437;48.156;11.530;2024-01-16T11:23:25;6.37;;;2.20;;
20557;SDS011;10437;48.156;11.530;2024-01-16T11:25:52;4.50;;;1.87;;
20557;SDS011;10437;48.156;11.530;2024-01-16T11:28:19;6.13;;;1.80;;
20557;SDS011;10437;48.156;11.530;2024-01-16T11:30:48;4.53;;;1.80;;
20557;SDS011;10437;48.156;11.530;2024-01-16T11:39:04;4.53;;;1.80;;
20557;SDS011;10437;48.156;11.530;2024-01-16T11:41:48;5.53;;;2.57;;
20557;SDS011;10437;48.156;11.530;2024-01-16T11:47:03;6.43;;;1.90;;
20557;SDS011;10437;48.156;11.530;2024-01-16T11:49:30;5.37;;;1.97;;
20557;SDS011;10437;48.156;11.530;2024-01-16T11:51:57;5.23;;;1.87;;
20557;SDS011;10437;48.156;11.530;2024-01-16T11:54:25;4.57;;;1.83;;
20557;SDS011;10437;48.156;11.530;2024-01-16T11:57:07;2.77;;;1.60;;
20557;SDS011;10437;48.156;11.530;2024-01-16T12:02:51;4.83;;;1.90;;
20557;SDS011;10437;48.156;11.530;2024-01-16T12:05:19;8.07;;;2.17;;
20557;SDS011;10437;48.156;11.530;2024-01-16T12:07:46;4.73;;;1.57;;
20557;SDS011;10437;48.156;11.530;2024-01-16T12:10:15;3.70;;;1.47;;
20557;SDS011;10437;48.156;11.530;2024-01-16T12:12:42;3.43;;;1.40;;
20557;SDS011;10437;48.156;11.530;2024-01-16T12:15:13;2.17;;;1.00;;
20557;SDS011;10437;48.156;11.530;2024-01-16T12:20:26;4.57;;;1.40;;
20557;SDS011;10437;48.156;11.530;2024-01-16T12:22:56;4.43;;;1.40;;
20557;SDS011;10437;48.156;11.530;2024-01-16T12:25:24;2.53;;;1.20;;
20557;SDS011;10437;48.156;11.530;2024-01-16T12:27:55;4.43;;;1.70;;
20557;SDS011;10437;48.156;11.530;2024-01-16T12:30:23;2.80;;;1.50;;
20557;SDS011;10437;48.156;11.530;2024-01-16T12:32:51;3.27;;;1.80;;
20557;SDS011;10437;48.156;11.530;2024-01-16T12:35:19;7.33;;;2.10;;
20557;SDS011;10437;48.156;11.530;2024-01-16T12:37:58;5.93;;;2.00;;
20557;SDS011;10437;48.156;11.530;2024-01-16T12:40:26;3.00;;;1.70;;
20557;SDS011;10437;48.156;11.530;2024-01-16T12:42:53;5.33;;;1.70;;
20557;SDS011;10437;48.156;11.530;2024-01-16T12:45:21;6.23;;;1.70;;
20557;SDS011;10437;48.156;11.530;2024-01-16T12:47:51;3.93;;;1.93;;
20557;SDS011;10437;48.156;11.530;2024-01-16T12:50:19;3.47;;;1.60;;
20557;SDS011;10437;48.156;11.530;2024-01-16T12:52:47;12.50;;;2.20;;
20557;SDS011;10437;48.156;11.530;2024-01-16T12:55:16;6.40;;;1.73;;
20557;SDS011;10437;48.156;11.530;2024-01-16T12:57:44;3.87;;;1.30;;
20557;SDS011;10437;48.156;11.530;2024-01-16T13:00:22;3.83;;;1.60;;
20557;SDS011;10437;48.156;11.530;2024-01-16T13:02:49;5.67;;;1.40;;
20557;SDS011;10437;48.156;11.530;2024-01-16T13:05:17;4.77;;;1.33;;
20557;SDS011;10437;48.156;11.530;2024-01-16T13:07:45;3.67;;;1.50;;
20557;SDS011;10437;48.156;11.530;2024-01-16T13:10:12;10.97;;;2.00;;
20557;SDS011;10437;48.156;11.530;2024-01-16T13:12:44;9.23;;;2.03;;
20557;SDS011;10437;48.156;11.530;2024-01-16T13:15:11;3.77;;;1.57;;
20557;SDS011;10437;48.156;11.530;2024-01-16T13:17:42;5.10;;;1.70;;
20557;SDS011;10437;48.156;11.530;2024-01-16T13:20:09;3.27;;;1.37;;
20557;SDS011;10437;48.156;11.530;2024-01-16T13:22:39;2.50;;;1.30;;
20557;SDS011;10437;48.156;11.530;2024-01-16T13:25:07;5.33;;;1.83;;
20557;SDS011;10437;48.156;11.530;2024-01-16T13:27:34;2.73;;;1.43;;
20557;SDS011;10437;48.156;11.530;2024-01-16T13:30:03;5.17;;;1.83;;
20557;SDS011;10437;48.156;11.530;2024-01-16T13:32:31;4.00;;;1.67;;
20557;SDS011;10437;48.156;11.530;2024-01-16T13:35:01;3.33;;;1.83;;
20557;SDS011;10437;48.156;11.530;2024-01-16T13:37:32;5.43;;;1.80;;
20557;SDS011;10437;48.156;11.530;2024-01-16T13:40:02;4.27;;;1.87;;
20557;SDS011;10437;48.156;11.530;2024-01-16T13:42:33;3.53;;;1.83;;
20557;SDS011;10437;48.156;11.530;2024-01-16T13:45:01;8.03;;;2.00;;
20557;SDS011;10437;48.156;11.530;2024-01-16T13:47:30;2.43;;;1.53;;
20557;SDS011;10437;48.156;11.530;2024-01-16T13:49:58;3.63;;;1.70;;
20557;SDS011;10437;48.156;11.530;2024-01-16T13:52:28;5.97;;;1.63;;
20557;SDS011;10437;48.156;11.530;2024-01-16T13:54:55;6.27;;;1.73;;
20557;SDS011;10437;48.156;11.530;2024-01-16T13:57:23;7.47;;;1.87;;
20557;SDS011;10437;48.156;11.530;2024-01-16T13:59:50;3.47;;;1.87;;
20557;SDS011;10437;48.156;11.530;2024-01-16T14:02:17;3.97;;;1.80;;
20557;SDS011;10437;48.156;11.530;2024-01-16T14:04:46;4.17;;;2.00;;
20557;SDS011;10437;48.156;11.530;2024-01-16T14:07:13;3.70;;;1.90;;
20557;SDS011;10437;48.156;11.530;2024-01-16T14:09:41;4.97;;;1.83;;
20557;SDS011;10437;48.156;11.530;2024-01-16T14:12:08;6.27;;;1.90;;
20557;SDS011;10437;48.156;11.530;2024-01-16T14:14:36;6.30;;;1.80;;
20557;SDS011;10437;48.156;11.530;2024-01-16T14:17:04;4.97;;;1.67;;
20557;SDS011;10437;48.156;11.530;2024-01-16T14:19:31;3.43;;;1.50;;
20557;SDS011;10437;48.156;11.530;2024-01-16T14:22:00;9.60;;;2.13;;
20557;SDS011;10437;48.156;11.530;2024-01-16T14:24:26;7.57;;;2.90;;
20557;SDS011;10437;48.156;11.530;2024-01-16T14:26:54;13.73;;;3.50;;
20557;SDS011;10437;48.156;11.530;2024-01-16T14:29:21;8.43;;;3.30;;
20557;SDS011;10437;48.156;11.530;2024-01-16T14:31:49;5.57;;;2.93;;
20557;SDS011;10437;48.156;11.530;2024-01-16T14:34:16;6.90;;;2.70;;
20557;SDS011;10437;48.156;11.530;2024-01-16T14:36:44;6.67;;;3.27;;
20557;SDS011;10437;48.156;11.530;2024-01-16T14:39:13;5.83;;;2.63;;
20557;SDS011;10437;48.156;11.530;2024-01-16T14:41:49;10.73;;;3.37;;
20557;SDS011;10437;48.156;11.530;2024-01-16T14:44:17;6.70;;;3.00;;
20557;SDS011;10437;48.156;11.530;2024-01-16T14:46:44;6.77;;;3.00;;
20557;SDS011;10437;48.156;11.530;2024-01-16T14:49:11;18.97;;;6.50;;
20557;SDS011;10437;48.156;11.530;2024-01-16T14:51:39;10.60;;;3.50;;
20557;SDS011;10437;48.156;11.530;2024-01-16T14:54:06;7.77;;;3.30;;